Time;durP1;ratioP1;P1;durP2;ratioP2;P2;SDS_P1;SDS_P2;PMS_P1;PMS_P2;Temp;Humidity;BMP_temperature;BMP_pressure;BME280_temperature;BME280_humidity;BME280_pressure;Samples;Min_cycle;Max_cycle;Signal;HPM_P1;HPM_P2
2022/04/03 00:01:31;;;;;;;2.28;1.52;;;;;;;;;;4797987;29;20609;-69
2022/04/03 00:03:57;;;;;;;1.83;1.35;;;;;;;;;;4802910;29;20437;-69
2022/04/03 00:06:23;;;;;;;1.58;1.48;;;;;;;;;;4788036;29;20051;-69
2022/04/03 00:08:49;;;;;;;1.40;1.30;;;;;;;;;;4774937;29;20050;-69
2022/04/03 00:11:16;;;;;;;1.77;1.30;;;;;;;;;;4800252;29;20059;-69
2022/04/03 00:13:42;;;;;;;1.58;1.48;;;;;;;;;;4803528;29;20054;-69
2022/04/03 00:16:08;;;;;;;1.23;1.20;;;;;;;;;;4800278;29;20046;-69
2022/04/03 00:18:34;;;;;;;2.30;1.30;;;;;;;;;;4801070;29;20046;-69
2022/04/03 00:21:01;;;;;;;1.23;1.23;;;;;;;;;;4796720;29;20049;-69
2022/04/03 00:23:27;;;;;;;3.50;1.70;;;;;;;;;;4786905;29;20496;-69
2022/04/03 00:25:53;;;;;;;2.20;1.30;;;;;;;;;;4800877;29;20127;-69
2022/04/03 00:28:20;;;;;;;2.03;1.40;;;;;;;;;;4801594;29;20043;-69
2022/04/03 00:30:49;;;;;;;2.05;1.48;;;;;;;;;;4782890;29;20051;-69
2022/04/03 00:33:15;;;;;;;1.70;1.38;;;;;;;;;;4798546;29;20046;-69
2022/04/03 00:35:42;;;;;;;1.40;1.30;;;;;;;;;;4784494;29;20047;-69
2022/04/03 00:38:08;;;;;;;1.52;1.42;;;;;;;;;;4801491;29;20115;-69
2022/04/03 00:40:34;;;;;;;1.85;1.30;;;;;;;;;;4800988;29;20103;-69
2022/04/03 00:43:00;;;;;;;1.40;1.30;;;;;;;;;;4801767;29;20062;-69
2022/04/03 00:45:26;;;;;;;1.92;1.40;;;;;;;;;;4805411;29;20055;-69
2022/04/03 00:47:53;;;;;;;1.30;1.30;;;;;;;;;;4805251;29;20081;-69
2022/04/03 00:50:20;;;;;;;2.65;1.63;;;;;;;;;;4792902;29;20046;-69
2022/04/03 00:52:46;;;;;;;2.33;1.73;;;;;;;;;;4805292;29;20108;-69
2022/04/03 00:55:18;;;;;;;1.85;1.40;;;;;;;;;;4804978;29;20097;-69
2022/04/03 00:57:44;;;;;;;2.45;1.50;;;;;;;;;;4788550;29;20058;-69
2022/04/03 01:00:12;;;;;;;1.38;1.33;;;;;;;;;;4804590;29;20039;-69
2022/04/03 01:02:39;;;;;;;1.60;1.40;;;;;;;;;;4805045;29;20113;-69
2022/04/03 01:05:05;;;;;;;2.47;1.70;;;;;;;;;;4798613;29;20051;-69
2022/04/03 01:07:31;;;;;;;1.73;1.52;;;;;;;;;;4806483;29;20050;-70
2022/04/03 01:09:59;;;;;;;2.55;1.45;;;;;;;;;;4813769;29;20047;-68
2022/04/03 01:12:25;;;;;;;2.80;1.40;;;;;;;;;;4800781;29;20123;-69
2022/04/03 01:14:51;;;;;;;3.22;1.52;;;;;;;;;;4804939;29;20118;-69
2022/04/03 01:17:17;;;;;;;1.65;1.55;;;;;;;;;;4788026;29;20740;-69
2022/04/03 01:19:43;;;;;;;1.48;1.33;;;;;;;;;;4804660;29;20119;-69
2022/04/03 01:22:09;;;;;;;1.60;1.50;;;;;;;;;;4802765;29;20373;-68
2022/04/03 01:24:35;;;;;;;1.30;1.20;;;;;;;;;;4777570;29;20086;-69
2022/04/03 01:27:07;;;;;;;1.27;1.17;;;;;;;;;;4786194;29;20051;-69
2022/04/03 01:29:33;;;;;;;2.28;1.40;;;;;;;;;;4805072;29;20059;-69
2022/04/03 01:31:59;;;;;;;2.03;1.38;;;;;;;;;;4806008;29;20131;-68
2022/04/03 01:34:25;;;;;;;2.65;1.50;;;;;;;;;;4801398;29;20108;-69
2022/04/03 01:36:51;;;;;;;2.42;1.75;;;;;;;;;;4779384;29;20137;-68
2022/04/03 01:39:17;;;;;;;1.27;1.27;;;;;;;;;;4805276;29;20130;-68
2022/04/03 01:41:43;;;;;;;2.97;1.50;;;;;;;;;;4800747;29;20157;-69
2022/04/03 01:44:10;;;;;;;1.25;1.25;;;;;;;;;;4802586;29;20047;-68
2022/04/03 01:46:37;;;;;;;2.22;1.40;;;;;;;;;;4803666;29;20145;-68
2022/04/03 01:49:04;;;;;;;2.28;1.50;;;;;;;;;;4787036;29;20780;-69
2022/04/03 01:51:30;;;;;;;2.05;1.25;;;;;;;;;;4788432;29;20055;-68
2022/04/03 01:53:56;;;;;;;2.05;1.23;;;;;;;;;;4787678;29;20050;-68
2022/04/03 01:56:22;;;;;;;1.63;1.40;;;;;;;;;;4787187;29;20138;-68
2022/04/03 01:58:48;;;;;;;2.15;1.20;;;;;;;;;;4802147;29;20075;-68
2022/04/03 02:01:14;;;;;;;1.40;1.30;;;;;;;;;;4803793;29;20078;-68
2022/04/03 02:03:40;;;;;;;1.90;1.80;;;;;;;;;;4787928;29;20058;-68
2022/04/03 02:06:06;;;;;;;1.50;1.30;;;;;;;;;;4804615;29;20123;-68
2022/04/03 02:08:32;;;;;;;1.42;1.33;;;;;;;;;;4803192;29;20522;-68
2022/04/03 02:10:58;;;;;;;1.92;1.50;;;;;;;;;;4786943;29;20150;-68
2022/04/03 02:13:24;;;;;;;1.23;1.13;;;;;;;;;;4792541;29;20050;-68
2022/04/03 02:15:50;;;;;;;1.33;1.23;;;;;;;;;;4800168;29;20383;-69
2022/04/03 02:18:17;;;;;;;1.75;1.33;;;;;;;;;;4809262;29;20043;-69
2022/04/03 02:20:43;;;;;;;1.30;1.20;;;;;;;;;;4787911;29;20103;-68
2022/04/03 02:23:11;;;;;;;1.50;1.40;;;;;;;;;;4802777;29;20143;-68
2022/04/03 02:25:37;;;;;;;1.83;1.27;;;;;;;;;;4804074;29;20408;-68
2022/04/03 02:28:04;;;;;;;1.20;1.20;;;;;;;;;;4795303;29;20047;-68
2022/04/03 02:30:30;;;;;;;3.55;1.40;;;;;;;;;;4803019;29;20058;-68
2022/04/03 02:32:56;;;;;;;1.95;1.33;;;;;;;;;;4805037;29;20500;-68
2022/04/03 02:35:22;;;;;;;1.98;1.20;;;;;;;;;;4804205;29;20051;-68
2022/04/03 02:37:48;;;;;;;1.42;1.25;;;;;;;;;;4804755;29;20051;-68
2022/04/03 02:40:16;;;;;;;2.00;1.30;;;;;;;;;;4804103;29;20051;-69
2022/04/03 02:42:42;;;;;;;2.13;1.17;;;;;;;;;;4800707;29;20055;-69
2022/04/03 02:45:12;;;;;;;1.40;1.33;;;;;;;;;;4783115;29;20551;-69
2022/04/03 02:47:38;;;;;;;2.55;1.33;;;;;;;;;;4804574;29;20046;-69
2022/04/03 02:50:05;;;;;;;2.67;1.40;;;;;;;;;;4787468;29;20046;-69
2022/04/03 02:52:31;;;;;;;2.65;1.50;;;;;;;;;;4795517;29;20055;-69
2022/04/03 02:54:57;;;;;;;2.15;1.20;;;;;;;;;;4779119;29;20055;-69
2022/04/03 02:57:23;;;;;;;2.63;1.40;;;;;;;;;;4801674;29;20508;-69
2022/04/03 02:59:49;;;;;;;1.77;1.30;;;;;;;;;;4800850;29;20047;-68
2022/04/03 03:02:15;;;;;;;2.45;1.20;;;;;;;;;;4804304;29;20043;-69
2022/04/03 03:04:41;;;;;;;2.60;1.25;;;;;;;;;;4802604;29;20055;-68
2022/04/03 03:07:08;;;;;;;1.48;1.17;;;;;;;;;;4804035;29;20058;-68
2022/04/03 03:09:37;;;;;;;1.25;1.17;;;;;;;;;;4798833;29;20079;-69
2022/04/03 03:12:03;;;;;;;2.03;1.40;;;;;;;;;;4800397;29;20496;-68
2022/04/03 03:14:29;;;;;;;1.15;1.05;;;;;;;;;;4802043;29;20568;-70
2022/04/03 03:16:55;;;;;;;3.20;1.27;;;;;;;;;;4803245;29;20129;-69
2022/04/03 03:19:22;;;;;;;1.35;1.25;;;;;;;;;;4796508;29;20047;-69
2022/04/03 03:21:50;;;;;;;1.23;1.10;;;;;;;;;;4786353;29;20151;-68
2022/04/03 03:24:16;;;;;;;1.40;1.10;;;;;;;;;;4802797;29;20412;-68
2022/04/03 03:26:42;;;;;;;1.52;1.30;;;;;;;;;;4799579;29;20165;-68
2022/04/03 03:29:08;;;;;;;2.15;1.30;;;;;;;;;;4801010;29;20129;-69
2022/04/03 03:31:34;;;;;;;1.20;1.20;;;;;;;;;;4800735;29;20134;-68
2022/04/03 03:34:00;;;;;;;1.10;1.10;;;;;;;;;;4802658;29;20069;-69
2022/04/03 03:36:27;;;;;;;1.75;1.30;;;;;;;;;;4786228;29;20484;-69
2022/04/03 03:38:54;;;;;;;1.33;1.20;;;;;;;;;;4785976;29;20061;-68
2022/04/03 03:41:20;;;;;;;3.65;1.30;;;;;;;;;;4801663;29;20046;-69
2022/04/03 03:43:47;;;;;;;1.48;1.38;;;;;;;;;;4784633;29;20063;-68
2022/04/03 03:46:13;;;;;;;1.40;1.27;;;;;;;;;;4783353;29;20116;-68
2022/04/03 03:48:39;;;;;;;2.72;1.40;;;;;;;;;;4800969;29;20119;-68
2022/04/03 03:51:11;;;;;;;1.17;1.13;;;;;;;;;;4787984;29;20047;-68
2022/04/03 03:53:37;;;;;;;1.60;1.45;;;;;;;;;;4786278;29;20131;-68
2022/04/03 03:56:04;;;;;;;2.42;1.50;;;;;;;;;;4799394;29;20040;-68
2022/04/03 03:58:30;;;;;;;2.45;1.50;;;;;;;;;;4800170;29;20054;-69
2022/04/03 04:00:56;;;;;;;4.18;1.50;;;;;;;;;;4798151;29;20454;-68
2022/04/03 04:03:22;;;;;;;2.55;1.30;;;;;;;;;;4802534;29;20054;-69
2022/04/03 04:05:49;;;;;;;2.70;1.20;;;;;;;;;;4801906;29;20046;-68
2022/04/03 04:08:15;;;;;;;2.60;1.35;;;;;;;;;;4801484;29;20054;-68
2022/04/03 04:10:41;;;;;;;3.72;1.20;;;;;;;;;;4801698;29;20050;-68
2022/04/03 04:13:07;;;;;;;1.92;1.33;;;;;;;;;;4805505;29;20137;-68
2022/04/03 04:15:33;;;;;;;2.42;1.50;;;;;;;;;;4776770;29;21159;-69
2022/04/03 04:17:59;;;;;;;2.78;1.50;;;;;;;;;;4806249;29;20404;-68
2022/04/03 04:20:26;;;;;;;4.57;1.58;;;;;;;;;;4791200;29;20057;-68
2022/04/03 04:22:52;;;;;;;3.65;1.40;;;;;;;;;;4804178;29;20512;-69
2022/04/03 04:25:21;;;;;;;2.28;1.60;;;;;;;;;;4807374;29;20408;-68
2022/04/03 04:27:47;;;;;;;4.63;1.45;;;;;;;;;;4805109;29;20441;-69
2022/04/03 04:30:14;;;;;;;5.85;1.58;;;;;;;;;;4803243;29;20496;-68
2022/04/03 04:32:45;;;;;;;2.92;1.67;;;;;;;;;;4806817;29;20141;-68
2022/04/03 04:35:13;;;;;;;2.97;1.30;;;;;;;;;;4804045;29;20156;-68
2022/04/03 04:37:40;;;;;;;3.50;1.20;;;;;;;;;;4805583;29;20144;-68
2022/04/03 04:40:06;;;;;;;3.55;1.48;;;;;;;;;;4788983;29;20061;-68
2022/04/03 04:42:32;;;;;;;4.20;1.52;;;;;;;;;;4796502;29;20062;-69
2022/04/03 04:44:58;;;;;;;6.18;2.03;;;;;;;;;;4803677;29;20065;-69
2022/04/03 04:47:25;;;;;;;3.40;1.50;;;;;;;;;;4789781;29;20054;-68
2022/04/03 04:49:53;;;;;;;2.97;1.33;;;;;;;;;;4805081;29;20096;-68
2022/04/03 04:52:19;;;;;;;2.05;1.50;;;;;;;;;;4790121;29;20516;-68
2022/04/03 04:54:45;;;;;;;3.63;1.48;;;;;;;;;;4804797;29;20042;-69
2022/04/03 04:57:11;;;;;;;1.40;1.30;;;;;;;;;;4801391;29;20480;-69
2022/04/03 04:59:37;;;;;;;1.75;1.17;;;;;;;;;;4802452;29;20057;-68
2022/04/03 05:02:05;;;;;;;2.55;1.30;;;;;;;;;;4803849;29;20043;-69
2022/04/03 05:04:31;;;;;;;3.03;1.40;;;;;;;;;;4778512;29;20058;-68
2022/04/03 05:06:57;;;;;;;3.90;1.50;;;;;;;;;;4802446;29;20052;-69
2022/04/03 05:09:23;;;;;;;1.60;1.40;;;;;;;;;;4805985;29;20042;-68
2022/04/03 05:11:49;;;;;;;3.65;1.60;;;;;;;;;;4803813;29;20373;-68
2022/04/03 05:14:15;;;;;;;1.75;1.48;;;;;;;;;;4802186;29;20053;-68
2022/04/03 05:16:44;;;;;;;1.65;1.52;;;;;;;;;;4803152;29;20116;-69
2022/04/03 05:19:13;;;;;;;4.63;1.50;;;;;;;;;;4787443;29;20051;-69
2022/04/03 05:21:40;;;;;;;2.30;1.30;;;;;;;;;;4799114;29;20082;-68
2022/04/03 05:24:06;;;;;;;2.40;1.27;;;;;;;;;;4789008;29;20086;-69
2022/04/03 05:26:32;;;;;;;1.65;1.20;;;;;;;;;;4804652;29;20086;-68
2022/04/03 05:28:58;;;;;;;3.03;1.38;;;;;;;;;;4787850;29;20043;-68
2022/04/03 05:31:26;;;;;;;2.22;1.27;;;;;;;;;;4800823;29;20495;-68
2022/04/03 05:33:55;;;;;;;2.90;1.33;;;;;;;;;;4783557;29;20050;-68
2022/04/03 05:36:21;;;;;;;1.85;1.30;;;;;;;;;;4797659;29;20092;-68
2022/04/03 05:38:48;;;;;;;6.15;1.83;;;;;;;;;;4805079;29;20106;-68
2022/04/03 05:41:14;;;;;;;3.30;1.55;;;;;;;;;;4786816;29;20405;-69
2022/04/03 05:43:40;;;;;;;3.65;1.33;;;;;;;;;;4803549;29;20473;-68
2022/04/03 05:46:07;;;;;;;3.13;1.50;;;;;;;;;;4801504;29;20589;-68
2022/04/03 05:48:33;;;;;;;3.38;1.50;;;;;;;;;;4805553;29;20138;-68
2022/04/03 05:50:59;;;;;;;2.80;1.50;;;;;;;;;;4803478;29;20053;-68
2022/04/03 05:53:26;;;;;;;2.88;1.55;;;;;;;;;;4801954;29;20427;-69
2022/04/03 05:55:55;;;;;;;1.67;1.40;;;;;;;;;;4786678;29;20499;-68
2022/04/03 05:58:21;;;;;;;1.92;1.40;;;;;;;;;;4805671;29;20057;-68
2022/04/03 06:00:47;;;;;;;1.35;1.25;;;;;;;;;;4781870;29;20408;-69
2022/04/03 06:03:13;;;;;;;1.73;1.40;;;;;;;;;;4790262;29;20111;-68
2022/04/03 06:05:40;;;;;;;1.20;1.20;;;;;;;;;;4785407;29;20526;-68
2022/04/03 06:08:06;;;;;;;2.53;1.30;;;;;;;;;;4803102;29;20051;-69
2022/04/03 06:10:34;;;;;;;1.00;1.00;;;;;;;;;;4802362;29;20107;-69
2022/04/03 06:13:00;;;;;;;1.98;1.20;;;;;;;;;;4787133;29;20058;-68
2022/04/03 06:15:27;;;;;;;3.00;1.10;;;;;;;;;;4780830;29;20118;-69
2022/04/03 06:17:54;;;;;;;1.40;1.30;;;;;;;;;;4805661;29;20046;-69
2022/04/03 06:20:21;;;;;;;1.67;1.55;;;;;;;;;;4804576;29;20039;-68
2022/04/03 06:22:47;;;;;;;1.30;1.20;;;;;;;;;;4802324;29;20058;-68
2022/04/03 06:25:14;;;;;;;2.78;1.40;;;;;;;;;;4804601;29;20051;-68
2022/04/03 06:27:41;;;;;;;3.13;1.67;;;;;;;;;;4801028;29;20055;-69
2022/04/03 06:30:07;;;;;;;1.50;1.38;;;;;;;;;;4802616;29;20047;-69
2022/04/03 06:32:33;;;;;;;1.95;1.35;;;;;;;;;;4789621;29;20103;-68
2022/04/03 06:34:59;;;;;;;2.58;1.33;;;;;;;;;;4803550;29;20055;-68
2022/04/03 06:37:25;;;;;;;1.42;1.27;;;;;;;;;;4802510;29;20043;-68
2022/04/03 06:39:54;;;;;;;1.30;1.25;;;;;;;;;;4786366;29;20566;-68
2022/04/03 06:42:20;;;;;;;1.60;1.50;;;;;;;;;;4804514;29;20101;-68
2022/04/03 06:44:46;;;;;;;1.30;1.30;;;;;;;;;;4802139;29;20050;-68
2022/04/03 06:47:12;;;;;;;1.20;1.20;;;;;;;;;;4798358;29;20493;-69
2022/04/03 06:49:40;;;;;;;1.48;1.38;;;;;;;;;;4797420;29;20045;-68
2022/04/03 06:52:08;;;;;;;2.08;1.25;;;;;;;;;;4786902;29;20404;-69
2022/04/03 06:54:34;;;;;;;2.25;1.48;;;;;;;;;;4799448;29;20058;-69
2022/04/03 06:57:00;;;;;;;1.98;1.60;;;;;;;;;;4802663;29;20042;-68
2022/04/03 06:59:27;;;;;;;1.33;1.23;;;;;;;;;;4784537;29;20047;-69
2022/04/03 07:01:53;;;;;;;5.22;1.33;;;;;;;;;;4800605;29;20476;-68
2022/04/03 07:04:19;;;;;;;2.35;1.63;;;;;;;;;;4786833;29;20828;-68
2022/04/03 07:06:45;;;;;;;1.42;1.42;;;;;;;;;;4802802;29;20094;-68
2022/04/03 07:09:11;;;;;;;1.40;1.23;;;;;;;;;;4803616;29;20130;-68
2022/04/03 07:11:37;;;;;;;1.90;1.40;;;;;;;;;;4784915;29;20130;-68
2022/04/03 07:14:04;;;;;;;1.42;1.33;;;;;;;;;;4796868;29;20492;-68
2022/04/03 07:16:30;;;;;;;1.60;1.38;;;;;;;;;;4785697;29;20055;-69
2022/04/03 07:18:56;;;;;;;1.58;1.38;;;;;;;;;;4801862;29;21696;-68
2022/04/03 07:21:22;;;;;;;1.45;1.35;;;;;;;;;;4798796;29;20450;-68
2022/04/03 07:23:49;;;;;;;2.60;1.30;;;;;;;;;;4802738;29;20043;-68
2022/04/03 07:26:15;;;;;;;1.30;1.20;;;;;;;;;;4801515;29;20173;-70
2022/04/03 07:28:41;;;;;;;2.33;1.33;;;;;;;;;;4801373;29;20043;-69
2022/04/03 07:31:08;;;;;;;3.60;1.38;;;;;;;;;;4802029;29;20058;-69
2022/04/03 07:33:34;;;;;;;1.80;1.40;;;;;;;;;;4791694;29;20074;-69
2022/04/03 07:36:01;;;;;;;3.80;1.50;;;;;;;;;;4801885;29;20078;-68
2022/04/03 07:38:27;;;;;;;3.38;1.50;;;;;;;;;;4801720;29;20066;-69
2022/04/03 07:40:53;;;;;;;2.20;1.52;;;;;;;;;;4801295;29;20055;-68
2022/04/03 07:43:19;;;;;;;1.30;1.20;;;;;;;;;;4795117;29;20428;-69
2022/04/03 07:45:46;;;;;;;1.55;1.40;;;;;;;;;;4800066;29;20047;-69
2022/04/03 07:48:12;;;;;;;1.70;1.30;;;;;;;;;;4803150;29;20050;-68
2022/04/03 07:50:38;;;;;;;2.15;1.30;;;;;;;;;;4800705;29;20523;-69
2022/04/03 07:53:05;;;;;;;2.65;1.40;;;;;;;;;;4794398;29;20048;-69
2022/04/03 07:55:31;;;;;;;2.75;1.63;;;;;;;;;;4800157;29;20058;-69
2022/04/03 07:57:57;;;;;;;2.15;1.40;;;;;;;;;;4801834;29;20047;-69
2022/04/03 08:00:23;;;;;;;3.35;1.40;;;;;;;;;;4792332;29;20059;-70
2022/04/03 08:02:49;;;;;;;3.13;1.60;;;;;;;;;;4802877;29;20112;-69
2022/04/03 08:05:15;;;;;;;3.45;1.40;;;;;;;;;;4797865;29;20051;-69
2022/04/03 08:07:46;;;;;;;2.00;1.40;;;;;;;;;;4778655;29;20061;-69
2022/04/03 08:10:16;;;;;;;2.95;1.80;;;;;;;;;;4798715;29;20500;-69
2022/04/03 08:12:43;;;;;;;3.17;1.83;;;;;;;;;;4783087;29;20042;-69
2022/04/03 08:15:13;;;;;;;3.75;1.30;;;;;;;;;;4781072;29;20400;-69
2022/04/03 08:17:39;;;;;;;1.48;1.30;;;;;;;;;;4803129;29;20142;-69
2022/04/03 08:20:09;;;;;;;1.75;1.35;;;;;;;;;;4802854;29;20046;-72
2022/04/03 08:22:37;;;;;;;4.85;1.50;;;;;;;;;;4784674;29;20129;-72
2022/04/03 08:25:03;;;;;;;1.50;1.40;;;;;;;;;;4803145;29;20047;-71
2022/04/03 08:27:42;;;;;;;1.98;1.60;;;;;;;;;;4787011;29;20062;-71
2022/04/03 08:30:10;;;;;;;1.23;1.23;;;;;;;;;;4797931;29;20145;-71
2022/04/03 08:32:36;;;;;;;1.35;1.30;;;;;;;;;;4803116;29;20135;-71
2022/04/03 08:35:02;;;;;;;1.40;1.35;;;;;;;;;;4788275;29;20051;-72
2022/04/03 08:37:29;;;;;;;3.00;1.40;;;;;;;;;;4785293;29;20090;-71
2022/04/03 08:39:55;;;;;;;1.27;1.20;;;;;;;;;;4794120;29;20050;-70
2022/04/03 08:42:21;;;;;;;1.58;1.40;;;;;;;;;;4784398;29;20054;-69
2022/04/03 08:44:47;;;;;;;1.25;1.10;;;;;;;;;;4796103;29;20402;-69
2022/04/03 08:47:17;;;;;;;2.15;1.10;;;;;;;;;;4799269;29;20082;-69
2022/04/03 08:49:43;;;;;;;2.13;1.27;;;;;;;;;;4799646;29;20401;-69
2022/04/03 08:52:10;;;;;;;1.35;1.25;;;;;;;;;;4801636;29;20505;-69
2022/04/03 08:54:37;;;;;;;2.17;1.20;;;;;;;;;;4802662;29;20047;-70
2022/04/03 08:57:06;;;;;;;1.63;1.30;;;;;;;;;;4779969;29;20099;-70
2022/04/03 08:59:37;;;;;;;1.23;1.13;;;;;;;;;;4795850;29;20487;-70
2022/04/03 09:02:04;;;;;;;1.55;1.15;;;;;;;;;;4795259;29;20047;-70
2022/04/03 09:04:31;;;;;;;2.58;1.25;;;;;;;;;;4794288;29;20092;-70
2022/04/03 09:06:58;;;;;;;2.70;1.25;;;;;;;;;;4793943;29;20070;-70
2022/04/03 09:09:25;;;;;;;1.48;1.20;;;;;;;;;;4796435;29;20141;-70
2022/04/03 09:12:10;;;;;;;2.15;1.20;;;;;;;;;;4778982;29;20062;-69
2022/04/03 09:14:44;;;;;;;1.17;1.10;;;;;;;;;;4797287;29;20523;-70
2022/04/03 09:17:10;;;;;;;2.30;1.30;;;;;;;;;;4787838;29;20059;-70
2022/04/03 09:19:36;;;;;;;1.33;1.20;;;;;;;;;;4804431;29;20103;-70
2022/04/03 09:22:02;;;;;;;2.78;1.30;;;;;;;;;;4786620;29;20051;-69
2022/04/03 09:24:29;;;;;;;1.98;1.23;;;;;;;;;;4805910;29;20507;-69
2022/04/03 09:26:58;;;;;;;2.10;1.30;;;;;;;;;;4801089;29;20047;-69
2022/04/03 09:29:25;;;;;;;2.05;1.10;;;;;;;;;;4787728;29;20520;-70
2022/04/03 09:31:57;;;;;;;1.17;1.17;;;;;;;;;;4804291;29;20161;-69
2022/04/03 09:34:25;;;;;;;1.83;1.40;;;;;;;;;;4790490;29;20141;-70
2022/04/03 09:36:56;;;;;;;1.15;1.10;;;;;;;;;;4803358;29;20054;-69
2022/04/03 09:39:24;;;;;;;1.90;1.17;;;;;;;;;;4802583;29;20083;-69
2022/04/03 09:42:01;;;;;;;3.80;1.60;;;;;;;;;;4795262;29;20144;-69
2022/04/03 09:44:28;;;;;;;1.90;1.30;;;;;;;;;;4801771;29;20062;-69
2022/04/03 09:47:13;;;;;;;1.55;1.30;;;;;;;;;;4786084;29;20070;-69
2022/04/03 09:49:39;;;;;;;2.58;1.50;;;;;;;;;;4799221;29;20056;-69
2022/04/03 09:52:05;;;;;;;3.25;1.30;;;;;;;;;;4775165;29;20061;-70
2022/04/03 09:54:31;;;;;;;2.38;1.20;;;;;;;;;;4804669;29;20050;-70
2022/04/03 09:57:18;;;;;;;3.22;1.40;;;;;;;;;;4787475;29;20469;-69
2022/04/03 09:59:54;;;;;;;1.48;1.35;;;;;;;;;;4787162;29;20058;-69
2022/04/03 10:02:22;;;;;;;3.00;1.45;;;;;;;;;;4797069;29;20054;-69
2022/04/03 10:04:48;;;;;;;1.10;1.10;;;;;;;;;;4789651;29;20386;-69
2022/04/03 10:07:14;;;;;;;2.67;2.25;;;;;;;;;;4803899;29;20401;-69
2022/04/03 10:09:44;;;;;;;3.72;1.30;;;;;;;;;;4805216;29;20047;-69
2022/04/03 10:12:11;;;;;;;2.00;1.20;;;;;;;;;;4801710;29;20254;-69
2022/04/03 10:14:39;;;;;;;2.70;1.40;;;;;;;;;;4803770;29;20051;-70
2022/04/03 10:17:05;;;;;;;1.20;1.10;;;;;;;;;;4802267;29;20530;-70
2022/04/03 10:19:31;;;;;;;3.22;1.25;;;;;;;;;;4785682;29;20133;-70
2022/04/03 10:21:58;;;;;;;1.45;1.35;;;;;;;;;;4802562;29;20050;-69
2022/04/03 10:24:25;;;;;;;5.57;1.30;;;;;;;;;;4803934;29;20059;-70
2022/04/03 10:27:14;;;;;;;3.47;1.10;;;;;;;;;;4788376;29;20050;-70
2022/04/03 10:29:41;;;;;;;1.95;1.45;;;;;;;;;;4801735;29;20058;-69
2022/04/03 10:32:07;;;;;;;1.80;1.40;;;;;;;;;;4803848;29;20091;-70
2022/04/03 10:34:46;;;;;;;2.60;1.30;;;;;;;;;;4802026;29;20058;-70
2022/04/03 10:37:26;;;;;;;4.05;1.42;;;;;;;;;;4800445;29;20043;-69
2022/04/03 10:39:54;;;;;;;2.25;1.27;;;;;;;;;;4793716;29;20275;-69
2022/04/03 10:42:27;;;;;;;2.60;1.30;;;;;;;;;;4801972;29;20476;-70
2022/04/03 10:45:11;;;;;;;3.80;1.40;;;;;;;;;;4798150;29;20154;-70
2022/04/03 10:47:37;;;;;;;3.13;1.40;;;;;;;;;;4797304;29;20133;-70
2022/04/03 10:50:04;;;;;;;2.28;1.20;;;;;;;;;;4782913;29;20047;-69
2022/04/03 10:52:37;;;;;;;2.92;1.60;;;;;;;;;;4784078;29;20070;-70
2022/04/03 10:55:11;;;;;;;2.15;1.35;;;;;;;;;;4802828;29;20054;-69
2022/04/03 10:57:53;;;;;;;1.77;1.25;;;;;;;;;;4782894;29;20042;-70
2022/04/03 11:00:19;;;;;;;2.50;1.60;;;;;;;;;;4783591;29;20062;-70
2022/04/03 11:02:53;;;;;;;1.40;1.30;;;;;;;;;;4801371;29;20046;-69
2022/04/03 11:05:22;;;;;;;1.30;1.20;;;;;;;;;;4800046;29;20518;-70
2022/04/03 11:07:55;;;;;;;1.52;1.42;;;;;;;;;;4786935;29;20062;-68
2022/04/03 11:10:40;;;;;;;1.17;1.13;;;;;;;;;;4799921;29;20046;-69
2022/04/03 11:13:09;;;;;;;1.20;1.10;;;;;;;;;;4803337;29;20094;-69
2022/04/03 11:15:51;;;;;;;1.92;1.35;;;;;;;;;;4802211;29;20515;-70
2022/04/03 11:18:30;;;;;;;1.23;1.05;;;;;;;;;;4795807;29;20081;-69
2022/04/03 11:29:30;;;;;;;1.75;1.40;;;;;;;;;;5078981;28;20409;-69
2022/04/03 11:31:57;;;;;;;2.85;1.40;;;;;;;;;;5076686;28;20053;-69
2022/04/03 11:34:28;;;;;;;1.73;1.40;;;;;;;;;;5075478;28;20206;-68
2022/04/03 11:36:56;;;;;;;1.40;1.40;;;;;;;;;;5078127;28;20052;-69
2022/04/03 11:39:22;;;;;;;1.45;1.35;;;;;;;;;;5062187;28;20052;-69
2022/04/03 11:41:51;;;;;;;2.00;1.38;;;;;;;;;;5070774;28;20048;-70
2022/04/03 11:44:17;;;;;;;2.20;1.30;;;;;;;;;;5067698;28;20045;-70
2022/04/03 11:46:49;;;;;;;1.58;1.45;;;;;;;;;;5067865;28;20561;-70
2022/04/03 11:49:16;;;;;;;1.60;1.40;;;;;;;;;;5070325;28;20055;-69
2022/04/03 11:51:43;;;;;;;2.10;1.50;;;;;;;;;;5062963;28;20040;-69
2022/04/03 11:54:10;;;;;;;2.58;1.45;;;;;;;;;;5076139;28;20133;-70
2022/04/03 11:56:37;;;;;;;2.20;1.30;;;;;;;;;;5109410;28;20040;-71
2022/04/03 11:59:08;;;;;;;3.42;2.45;;;;;;;;;;5086970;28;20048;-70
2022/04/03 12:01:38;;;;;;;1.50;1.40;;;;;;;;;;5076241;28;20044;-70
2022/04/03 12:04:08;;;;;;;3.13;1.40;;;;;;;;;;5083211;28;20048;-71
2022/04/03 12:06:35;;;;;;;1.40;1.30;;;;;;;;;;5069951;28;20041;-70
2022/04/03 12:09:05;;;;;;;3.72;1.45;;;;;;;;;;5080209;28;20195;-70
2022/04/03 12:11:31;;;;;;;3.08;1.70;;;;;;;;;;5081379;28;20043;-70
2022/04/03 12:13:58;;;;;;;2.80;1.38;;;;;;;;;;5067219;28;20044;-70
2022/04/03 12:16:25;;;;;;;2.00;1.30;;;;;;;;;;5067838;28;20076;-69
2022/04/03 12:19:00;;;;;;;2.97;1.58;;;;;;;;;;5086661;28;20139;-74
2022/04/03 12:21:43;;;;;;;2.35;1.38;;;;;;;;;;5067801;28;20036;-72
2022/04/03 12:24:12;;;;;;;2.72;1.30;;;;;;;;;;5072186;28;20068;-73
2022/04/03 12:26:38;;;;;;;4.88;1.67;;;;;;;;;;5080562;28;20431;-70
2022/04/03 12:29:06;;;;;;;1.90;1.30;;;;;;;;;;5074417;28;20571;-70
2022/04/03 12:31:32;;;;;;;1.67;1.20;;;;;;;;;;5078186;28;20066;-72
2022/04/03 12:34:07;;;;;;;1.35;1.27;;;;;;;;;;5082708;28;20049;-73
2022/04/03 12:36:40;;;;;;;2.22;1.35;;;;;;;;;;5080391;28;20094;-71
2022/04/03 12:39:24;;;;;;;1.90;1.40;;;;;;;;;;5074338;28;20048;-74
2022/04/03 12:41:50;;;;;;;2.25;1.50;;;;;;;;;;5061295;28;20044;-74
2022/04/03 12:44:17;;;;;;;2.25;1.40;;;;;;;;;;5057153;28;20775;-74
2022/04/03 12:46:45;;;;;;;2.30;1.40;;;;;;;;;;5056136;28;20460;-73
2022/04/03 12:49:19;;;;;;;1.50;1.40;;;;;;;;;;5054172;28;20048;-74
2022/04/03 12:51:49;;;;;;;1.67;1.50;;;;;;;;;;5053680;28;20040;-73
2022/04/03 12:54:15;;;;;;;1.40;1.30;;;;;;;;;;5066415;28;20040;-70
2022/04/03 12:59:38;;;;;;;1.77;1.50;;;;;;;;;;5062527;28;20472;-71
2022/04/03 13:02:07;;;;;;;1.50;1.30;;;;;;;;;;5061990;28;20095;-71
2022/04/03 13:04:34;;;;;;;4.25;1.45;;;;;;;;;;5054928;28;20415;-71
2022/04/03 13:07:01;;;;;;;3.10;1.90;;;;;;;;;;5058411;28;20131;-71
2022/04/03 13:09:27;;;;;;;1.52;1.42;;;;;;;;;;5068205;28;20052;-72
2022/04/03 13:11:53;;;;;;;1.50;1.40;;;;;;;;;;5093276;28;20048;-70
2022/04/03 13:14:26;;;;;;;4.05;1.55;;;;;;;;;;5054038;28;20045;-71
2022/04/03 13:16:53;;;;;;;1.98;1.52;;;;;;;;;;5073374;28;20044;-71
2022/04/03 13:19:21;;;;;;;1.98;1.40;;;;;;;;;;5055925;28;20076;-70
2022/04/03 13:21:47;;;;;;;3.22;1.40;;;;;;;;;;5063756;28;20098;-69
2022/04/03 13:24:13;;;;;;;2.67;1.30;;;;;;;;;;5070059;28;20087;-70
2022/04/03 13:26:40;;;;;;;1.73;1.60;;;;;;;;;;5051068;28;20133;-70
2022/04/03 13:29:09;;;;;;;2.75;1.40;;;;;;;;;;5061915;28;20074;-71
2022/04/03 13:31:35;;;;;;;1.50;1.40;;;;;;;;;;5062112;28;20442;-71
2022/04/03 13:34:02;;;;;;;2.28;1.30;;;;;;;;;;5064540;28;20041;-70
2022/04/03 13:36:28;;;;;;;2.72;1.55;;;;;;;;;;5056419;28;20072;-70
2022/04/03 13:38:55;;;;;;;3.92;1.52;;;;;;;;;;5053583;28;20071;-70
2022/04/03 13:41:21;;;;;;;1.42;1.38;;;;;;;;;;5056778;28;20048;-70
2022/04/03 13:43:47;;;;;;;1.80;1.33;;;;;;;;;;5063279;28;20386;-70
2022/04/03 13:46:13;;;;;;;3.63;1.63;;;;;;;;;;5067495;28;20056;-70
2022/04/03 13:48:39;;;;;;;1.60;1.50;;;;;;;;;;5071229;28;20408;-70
2022/04/03 13:51:06;;;;;;;1.77;1.40;;;;;;;;;;5068943;28;20040;-70
2022/04/03 13:53:32;;;;;;;2.03;1.52;;;;;;;;;;5072026;28;20077;-71
2022/04/03 13:55:58;;;;;;;2.40;1.40;;;;;;;;;;5063063;28;20093;-70
2022/04/03 13:58:26;;;;;;;2.38;1.67;;;;;;;;;;5064911;28;20067;-71
2022/04/03 14:00:53;;;;;;;1.63;1.40;;;;;;;;;;5053308;28;20060;-71
2022/04/03 14:03:20;;;;;;;1.60;1.50;;;;;;;;;;5057539;28;20110;-72
2022/04/03 14:05:47;;;;;;;1.58;1.48;;;;;;;;;;5093498;28;20041;-72
2022/04/03 14:08:14;;;;;;;1.85;1.50;;;;;;;;;;5058886;28;20060;-71
2022/04/03 14:10:40;;;;;;;1.70;1.40;;;;;;;;;;5066579;28;20044;-71
2022/04/03 14:13:06;;;;;;;3.17;1.50;;;;;;;;;;5064141;28;20044;-71
2022/04/03 14:15:32;;;;;;;3.10;1.60;;;;;;;;;;5056614;28;20045;-70
2022/04/03 14:17:58;;;;;;;1.80;1.60;;;;;;;;;;5057958;28;20052;-71
2022/04/03 14:20:24;;;;;;;1.65;1.55;;;;;;;;;;5052354;28;20494;-72
2022/04/03 14:22:50;;;;;;;1.40;1.30;;;;;;;;;;5054595;28;20548;-71
2022/04/03 14:25:16;;;;;;;1.40;1.30;;;;;;;;;;5056850;28;20037;-71
2022/04/03 14:27:42;;;;;;;2.40;1.40;;;;;;;;;;5063009;28;20083;-71
2022/04/03 14:30:08;;;;;;;1.55;1.30;;;;;;;;;;5054336;28;20048;-71
2022/04/03 14:32:35;;;;;;;2.22;1.55;;;;;;;;;;5055029;28;20048;-71
2022/04/03 14:35:02;;;;;;;4.13;1.60;;;;;;;;;;5057120;28;20118;-70
2022/04/03 14:37:28;;;;;;;3.50;1.60;;;;;;;;;;5059719;28;20138;-71
2022/04/03 14:39:54;;;;;;;3.72;1.70;;;;;;;;;;5058544;28;20511;-71
2022/04/03 14:42:21;;;;;;;4.78;1.90;;;;;;;;;;5053006;28;20593;-71
2022/04/03 14:44:47;;;;;;;3.75;1.55;;;;;;;;;;5057319;28;20040;-71
2022/04/03 14:47:14;;;;;;;3.13;1.48;;;;;;;;;;5065067;28;20036;-71
2022/04/03 14:49:40;;;;;;;2.63;1.70;;;;;;;;;;5067904;28;20154;-71
2022/04/03 14:52:06;;;;;;;2.45;1.67;;;;;;;;;;5066543;28;20511;-73
2022/04/03 14:54:32;;;;;;;2.53;1.65;;;;;;;;;;5070441;28;20048;-74
2022/04/03 14:56:58;;;;;;;3.55;1.77;;;;;;;;;;5070528;28;20072;-74